createdAt,value
2023-01-04T00:00:16.798Z,34
2023-01-04T00:01:24.115Z,31
2023-01-04T00:02:32.001Z,31
2023-01-04T00:03:39.364Z,27
2023-01-04T00:04:46.312Z,31
2023-01-04T00:05:53.778Z,40
2023-01-04T00:07:00.685Z,31
2023-01-04T00:08:07.948Z,33
2023-01-04T00:09:15.061Z,27
2023-01-04T00:10:23.700Z,30
2023-01-04T00:11:30.636Z,31
2023-01-04T00:12:38.021Z,30
2023-01-04T00:13:45.204Z,27
2023-01-04T00:14:52.132Z,26
2023-01-04T00:16:05.475Z,31
2023-01-04T00:17:09.639Z,27
2023-01-04T00:18:16.631Z,36
2023-01-04T00:19:24.542Z,35
2023-01-04T00:20:31.891Z,32
2023-01-04T00:21:38.859Z,32
2023-01-04T00:22:46.575Z,32
2023-01-04T00:23:53.764Z,29
2023-01-04T00:25:01.373Z,25
2023-01-04T00:26:08.467Z,25
2023-01-04T00:27:20.695Z,25
2023-01-04T00:28:28.590Z,30
2023-01-04T00:29:35.455Z,34
2023-01-04T00:30:42.594Z,27
2023-01-04T00:31:49.858Z,31
2023-01-04T00:32:57.031Z,28
2023-01-04T00:34:04.597Z,31
2023-01-04T00:35:22.051Z,30
2023-01-04T00:36:19.566Z,30
2023-01-04T00:37:26.822Z,25
2023-01-04T00:38:34.159Z,32
2023-01-04T00:39:41.083Z,36
2023-01-04T00:40:48.223Z,32
2023-01-04T00:41:59.968Z,38
2023-01-04T00:43:02.484Z,31
2023-01-04T00:44:09.761Z,41
2023-01-04T00:45:17.515Z,25
2023-01-04T00:46:24.593Z,41
2023-01-04T00:47:32.511Z,27
2023-01-04T00:48:40.840Z,35
2023-01-04T00:49:47.380Z,40
2023-01-04T00:50:54.565Z,38
2023-01-04T00:52:01.670Z,40
2023-01-04T00:53:09.427Z,31
2023-01-04T00:54:16.613Z,35
2023-01-04T00:55:23.661Z,31
2023-01-04T00:56:31.507Z,34
2023-01-04T00:57:38.299Z,32
2023-01-04T00:58:45.440Z,36
2023-01-04T00:59:52.554Z,29
2023-01-04T01:00:59.708Z,25
2023-01-04T01:02:10.037Z,25
2023-01-04T01:03:17.302Z,25
2023-01-04T01:04:24.370Z,26
2023-01-04T01:05:31.231Z,25
2023-01-04T01:06:38.374Z,25
2023-01-04T01:07:46.307Z,25
2023-01-04T01:08:53.525Z,25
2023-01-04T01:10:00.480Z,27
2023-01-04T01:11:07.451Z,27
2023-01-04T01:12:14.562Z,35
2023-01-04T01:13:21.687Z,35
2023-01-04T01:14:28.899Z,28
2023-01-04T01:15:36.031Z,29
2023-01-04T01:16:59.001Z,31
2023-01-04T01:17:50.354Z,31
2023-01-04T01:18:57.427Z,31
2023-01-04T01:20:05.134Z,25
2023-01-04T01:21:12.158Z,25
2023-01-04T01:22:22.371Z,33
2023-01-04T01:23:29.423Z,33
2023-01-04T01:24:36.525Z,31
2023-01-04T01:25:43.679Z,28
2023-01-04T01:26:51.659Z,29
2023-01-04T01:27:58.967Z,36
2023-01-04T01:29:07.490Z,33
2023-01-04T01:30:14.414Z,25
2023-01-04T01:31:21.468Z,33
2023-01-04T01:32:28.945Z,25
2023-01-04T01:33:36.139Z,25
2023-01-04T01:34:43.353Z,25
2023-01-04T01:35:50.551Z,26
2023-01-04T01:36:57.725Z,25
2023-01-04T01:38:05.194Z,30
2023-01-04T01:39:12.262Z,25
2023-01-04T01:40:19.695Z,27
2023-01-04T01:41:26.913Z,25
2023-01-04T01:42:34.727Z,34
2023-01-04T01:43:41.983Z,35
2023-01-04T01:44:54.212Z,25
2023-01-04T01:46:01.453Z,25
2023-01-04T01:47:09.675Z,25
2023-01-04T01:48:19.132Z,25
2023-01-04T01:49:26.398Z,25
2023-01-04T01:50:36.582Z,26
2023-01-04T01:51:43.819Z,26
2023-01-04T01:52:51.003Z,25
2023-01-04T01:53:57.938Z,29
2023-01-04T01:55:07.659Z,27
2023-01-04T01:56:14.862Z,29
2023-01-04T01:57:22.654Z,32
2023-01-04T01:58:31.083Z,35
2023-01-04T01:59:40.653Z,27
2023-01-04T02:00:48.119Z,30
2023-01-04T02:01:55.145Z,30
2023-01-04T02:03:02.629Z,27
2023-01-04T02:04:09.740Z,32
2023-01-04T02:05:16.591Z,37
2023-01-04T02:06:23.475Z,29
2023-01-04T02:07:30.811Z,25
2023-01-04T02:08:37.996Z,28
2023-01-04T02:09:45.022Z,27
2023-01-04T02:10:52.231Z,25
2023-01-04T02:11:59.341Z,32
2023-01-04T02:13:06.579Z,28
2023-01-04T02:14:13.942Z,29
2023-01-04T02:15:26.464Z,32
2023-01-04T02:16:33.427Z,32
2023-01-04T02:17:50.771Z,37
2023-01-04T02:18:57.815Z,39
2023-01-04T02:20:08.072Z,35
2023-01-04T02:21:22.016Z,34
2023-01-04T02:22:37.422Z,34
2023-01-04T02:23:54.872Z,31
2023-01-04T02:25:07.389Z,34
2023-01-04T02:26:22.205Z,29
2023-01-04T02:27:39.926Z,30
2023-01-04T02:28:57.431Z,26
2023-01-04T02:30:04.700Z,35
2023-01-04T02:31:22.552Z,29
2023-01-04T02:32:34.767Z,37
2023-01-04T02:33:47.760Z,39
2023-01-04T02:35:05.713Z,45
2023-01-04T02:36:12.962Z,53
2023-01-04T02:37:23.047Z,49
2023-01-04T02:38:38.299Z,43
2023-01-04T02:39:50.481Z,46
2023-01-04T02:41:02.765Z,50
2023-01-04T02:42:13.487Z,55
2023-01-04T02:43:31.466Z,54
2023-01-04T02:44:49.016Z,64
2023-01-04T02:45:58.842Z,54
2023-01-04T02:47:06.084Z,51
2023-01-04T02:48:13.282Z,66
2023-01-04T02:49:25.718Z,68
2023-01-04T02:50:37.950Z,64
2023-01-04T02:51:45.075Z,67
2023-01-04T02:52:53.370Z,65
2023-01-04T02:54:05.685Z,67
2023-01-04T02:55:17.782Z,73
2023-01-04T02:56:24.849Z,68
2023-01-04T02:57:42.099Z,73
2023-01-04T02:58:57.485Z,78
2023-01-04T03:00:16.528Z,77
2023-01-04T03:01:28.102Z,79
2023-01-04T03:02:50.738Z,96
2023-01-04T03:04:11.483Z,91
2023-01-04T03:05:29.250Z,80
2023-01-04T03:06:49.523Z,89
2023-01-04T03:07:56.588Z,93
2023-01-04T03:09:06.725Z,97
2023-01-04T03:10:17.212Z,97
2023-01-04T03:11:29.998Z,92
2023-01-04T03:12:42.197Z,100
2023-01-04T03:13:49.064Z,98
2023-01-04T03:14:56.293Z,103
2023-01-04T03:16:08.756Z,90
2023-01-04T03:17:15.581Z,108
2023-01-04T03:18:22.542Z,96
2023-01-04T03:19:30.436Z,107
2023-01-04T03:20:42.418Z,109
2023-01-04T03:21:49.936Z,96
2023-01-04T03:22:56.718Z,103
2023-01-04T03:24:09.045Z,112
2023-01-04T03:25:21.092Z,99
2023-01-04T03:26:36.552Z,103
2023-01-04T03:27:48.919Z,104
2023-01-04T03:29:00.932Z,111
2023-01-04T03:30:13.218Z,110
2023-01-04T03:31:25.729Z,108
2023-01-04T03:32:38.559Z,108
2023-01-04T03:33:50.838Z,108
2023-01-04T03:35:03.170Z,108
2023-01-04T03:36:15.488Z,109
2023-01-04T03:37:22.286Z,98
2023-01-04T03:38:35.260Z,114
2023-01-04T03:39:50.429Z,112
2023-01-04T03:41:10.432Z,106
2023-01-04T03:42:22.940Z,107
2023-01-04T03:43:35.574Z,115
2023-01-04T03:44:57.562Z,106
2023-01-04T03:46:15.060Z,119
2023-01-04T03:47:32.094Z,117
2023-01-04T03:48:47.263Z,101
2023-01-04T03:49:59.251Z,113
2023-01-04T03:51:06.350Z,110
2023-01-04T03:52:21.360Z,107
2023-01-04T03:53:31.191Z,109
2023-01-04T03:54:38.292Z,104
2023-01-04T03:55:45.538Z,104
2023-01-04T03:56:52.712Z,103
2023-01-04T03:57:59.777Z,97
2023-01-04T03:59:06.883Z,98
2023-01-04T04:00:14.048Z,102
2023-01-04T04:01:21.225Z,102
2023-01-04T04:02:28.357Z,94
2023-01-04T04:03:35.419Z,88
2023-01-04T04:04:47.835Z,98
2023-01-04T04:06:00.007Z,85
2023-01-04T04:07:12.466Z,101
2023-01-04T04:08:25.530Z,90
2023-01-04T04:09:35.714Z,95
2023-01-04T04:10:43.331Z,94
2023-01-04T04:11:50.277Z,86
2023-01-04T04:12:57.569Z,86
2023-01-04T04:14:05.521Z,80
2023-01-04T04:15:12.467Z,98
2023-01-04T04:16:19.632Z,94
2023-01-04T04:17:27.263Z,96
2023-01-04T04:18:34.154Z,93
2023-01-04T04:19:42.183Z,95
2023-01-04T04:20:49.485Z,101
2023-01-04T04:22:02.639Z,93
2023-01-04T04:23:09.452Z,89
2023-01-04T04:24:17.317Z,97
2023-01-04T04:25:24.177Z,88
2023-01-04T04:26:31.497Z,97
2023-01-04T04:27:38.415Z,97
2023-01-04T04:28:45.490Z,98
2023-01-04T04:29:52.643Z,98
2023-01-04T04:30:59.862Z,98
2023-01-04T04:32:07.116Z,110
2023-01-04T04:33:14.142Z,104
2023-01-04T04:34:21.291Z,115
2023-01-04T04:35:28.551Z,99
2023-01-04T04:36:35.705Z,110
2023-01-04T04:37:43.455Z,109
2023-01-04T04:38:51.284Z,120
2023-01-04T04:39:58.641Z,122
2023-01-04T04:41:05.628Z,111
2023-01-04T04:42:17.972Z,119
2023-01-04T04:43:24.791Z,124
2023-01-04T04:44:31.980Z,121
2023-01-04T04:45:39.144Z,112
2023-01-04T04:46:46.339Z,115
2023-01-04T04:47:53.626Z,123
2023-01-04T04:49:01.020Z,120
2023-01-04T04:50:08.528Z,126
2023-01-04T04:51:15.862Z,118
2023-01-04T04:52:23.003Z,122
2023-01-04T04:53:30.050Z,123
2023-01-04T04:54:37.435Z,123
2023-01-04T04:55:44.459Z,115
2023-01-04T04:56:51.526Z,119
2023-01-04T04:57:59.455Z,119
2023-01-04T04:59:07.131Z,115
2023-01-04T05:00:14.191Z,124
2023-01-04T05:01:21.221Z,122
2023-01-04T05:02:28.336Z,114
2023-01-04T05:03:35.323Z,109
2023-01-04T05:04:42.398Z,105
2023-01-04T05:05:49.445Z,112
2023-01-04T05:06:56.672Z,113
2023-01-04T05:08:05.027Z,112
2023-01-04T05:09:12.325Z,107
2023-01-04T05:10:20.183Z,103
2023-01-04T05:11:27.168Z,103
2023-01-04T05:12:40.549Z,111
2023-01-04T05:13:52.635Z,105
2023-01-04T05:14:59.957Z,108
2023-01-04T05:16:07.247Z,102
2023-01-04T05:17:15.008Z,93
2023-01-04T05:18:21.871Z,97
2023-01-04T05:19:28.818Z,103
2023-01-04T05:20:36.003Z,91
2023-01-04T05:21:43.227Z,101
2023-01-04T05:22:50.549Z,99
2023-01-04T05:23:58.765Z,98
2023-01-04T05:25:06.474Z,86
2023-01-04T05:26:13.738Z,89
2023-01-04T05:27:20.537Z,98
2023-01-04T05:28:28.587Z,100
2023-01-04T05:29:35.788Z,97
2023-01-04T05:30:47.921Z,98
2023-01-04T05:31:56.066Z,97
2023-01-04T05:33:04.027Z,83
2023-01-04T05:34:10.878Z,102
2023-01-04T05:35:17.975Z,90
2023-01-04T05:36:25.129Z,89
2023-01-04T05:37:32.223Z,97
2023-01-04T05:38:39.675Z,92
2023-01-04T05:39:46.587Z,94
2023-01-04T05:40:53.716Z,89
2023-01-04T05:42:00.878Z,92
2023-01-04T05:43:13.371Z,97
2023-01-04T05:44:21.059Z,81
2023-01-04T05:45:28.239Z,82
2023-01-04T05:46:35.581Z,88
2023-01-04T05:47:43.392Z,86
2023-01-04T05:48:53.338Z,87
2023-01-04T05:50:00.624Z,85
2023-01-04T05:51:07.767Z,92
2023-01-04T05:52:14.723Z,86
2023-01-04T05:53:21.750Z,86
2023-01-04T05:54:28.806Z,93
2023-01-04T05:55:36.007Z,94
2023-01-04T05:56:43.264Z,88
2023-01-04T05:57:50.365Z,92
2023-01-04T05:58:57.438Z,91
2023-01-04T06:00:05.000Z,88
2023-01-04T06:01:12.312Z,95
2023-01-04T06:02:19.664Z,88
2023-01-04T06:03:26.595Z,89
2023-01-04T06:04:33.671Z,91
2023-01-04T06:05:40.635Z,89
2023-01-04T06:06:47.795Z,90
2023-01-04T06:07:54.907Z,92
2023-01-04T06:09:02.114Z,89
2023-01-04T06:10:09.398Z,89
2023-01-04T06:11:21.395Z,92
2023-01-04T06:12:24.965Z,92
2023-01-04T06:13:33.412Z,91
2023-01-04T06:14:40.263Z,98
2023-01-04T06:15:47.404Z,98
2023-01-04T06:16:54.798Z,97
2023-01-04T06:18:01.854Z,99
2023-01-04T06:19:09.136Z,98
2023-01-04T06:20:16.282Z,100
2023-01-04T06:21:23.591Z,105
2023-01-04T06:22:30.719Z,105
2023-01-04T06:23:39.581Z,100
2023-01-04T06:24:46.726Z,107
2023-01-04T06:25:53.738Z,103
2023-01-04T06:27:00.923Z,101
2023-01-04T06:28:07.999Z,100
2023-01-04T06:29:15.139Z,105
2023-01-04T06:30:22.368Z,103
2023-01-04T06:31:29.639Z,100
2023-01-04T06:32:36.574Z,100
2023-01-04T06:33:43.622Z,101
2023-01-04T06:34:50.715Z,107
2023-01-04T06:35:57.981Z,103
2023-01-04T06:37:05.084Z,111
2023-01-04T06:38:12.363Z,115
2023-01-04T06:39:19.304Z,114
2023-01-04T06:40:26.319Z,124
2023-01-04T06:41:33.456Z,115
2023-01-04T06:42:40.865Z,114
2023-01-04T06:43:51.691Z,119
2023-01-04T06:44:58.577Z,119
2023-01-04T06:46:05.996Z,117
2023-01-04T06:47:12.939Z,118
2023-01-04T06:48:19.999Z,119
2023-01-04T06:49:26.953Z,117
2023-01-04T06:50:34.054Z,117
2023-01-04T06:51:41.279Z,125
2023-01-04T06:52:48.447Z,118
2023-01-04T06:53:55.663Z,117
2023-01-04T06:55:02.709Z,113
2023-01-04T06:56:10.745Z,114
2023-01-04T06:57:18.053Z,112
2023-01-04T06:58:25.052Z,114
2023-01-04T06:59:32.219Z,118
2023-01-04T07:00:39.430Z,114
2023-01-04T07:01:47.365Z,111
2023-01-04T07:03:13.008Z,114
2023-01-04T07:04:01.945Z,114
2023-01-04T07:05:09.911Z,110
2023-01-04T07:06:17.055Z,115
2023-01-04T07:07:24.453Z,110
2023-01-04T07:08:31.311Z,113
2023-01-04T07:09:38.413Z,119
2023-01-04T07:10:45.501Z,117
2023-01-04T07:11:52.723Z,112
2023-01-04T07:13:01.840Z,125
2023-01-04T07:14:09.511Z,120
2023-01-04T07:15:36.997Z,123
2023-01-04T07:16:23.710Z,115
2023-01-04T07:17:31.099Z,117
2023-01-04T07:18:38.506Z,114
2023-01-04T07:19:45.693Z,108
2023-01-04T07:20:52.884Z,110
2023-01-04T07:22:00.192Z,115
2023-01-04T07:23:07.231Z,110
2023-01-04T07:24:15.458Z,110
2023-01-04T07:25:22.414Z,116
2023-01-04T07:26:29.592Z,106
2023-01-04T07:27:36.693Z,113
2023-01-04T07:28:43.829Z,114
2023-01-04T07:29:56.407Z,116
2023-01-04T07:31:03.441Z,112
2023-01-04T07:32:13.939Z,107
2023-01-04T07:33:17.443Z,113
2023-01-04T07:34:24.782Z,110
2023-01-04T07:35:31.738Z,111
2023-01-04T07:36:38.922Z,113
2023-01-04T07:37:46.200Z,114
2023-01-04T07:38:53.332Z,114
2023-01-04T07:40:00.383Z,108
2023-01-04T07:41:07.589Z,110
2023-01-04T07:42:14.740Z,104
2023-01-04T07:43:27.628Z,107
2023-01-04T07:44:29.395Z,112
2023-01-04T07:45:36.486Z,109
2023-01-04T07:46:43.749Z,111
2023-01-04T07:47:50.866Z,107
2023-01-04T07:48:57.932Z,109
2023-01-04T07:50:05.212Z,109
2023-01-04T07:51:12.834Z,99
2023-01-04T07:52:19.801Z,109
2023-01-04T07:53:26.893Z,108
2023-01-04T07:54:34.166Z,105
2023-01-04T07:55:41.381Z,99
2023-01-04T07:56:48.553Z,107
2023-01-04T07:57:55.986Z,98
2023-01-04T07:59:03.359Z,99
2023-01-04T08:00:12.836Z,99
2023-01-04T08:01:20.122Z,98
2023-01-04T08:02:27.416Z,101
2023-01-04T08:03:34.545Z,93
2023-01-04T08:04:41.592Z,96
2023-01-04T08:05:48.853Z,96
2023-01-04T08:06:56.579Z,91
2023-01-04T08:08:03.911Z,98
2023-01-04T08:09:10.996Z,96
2023-01-04T08:10:18.203Z,91
2023-01-04T08:11:25.799Z,92
2023-01-04T08:12:32.959Z,99
2023-01-04T08:13:40.144Z,100
2023-01-04T08:14:47.173Z,93
2023-01-04T08:15:55.421Z,92
2023-01-04T08:17:03.448Z,93
2023-01-04T08:18:10.627Z,89
2023-01-04T08:19:18.064Z,95
2023-01-04T08:20:24.924Z,88
2023-01-04T08:21:32.159Z,92
2023-01-04T08:22:40.516Z,88
2023-01-04T08:23:48.252Z,95
2023-01-04T08:24:56.465Z,90
2023-01-04T08:26:03.813Z,93
2023-01-04T08:27:14.088Z,86
2023-01-04T08:28:21.356Z,98
2023-01-04T08:29:34.878Z,84
2023-01-04T08:30:39.372Z,87
2023-01-04T08:31:46.528Z,88
2023-01-04T08:32:53.682Z,93
2023-01-04T08:34:01.683Z,96
2023-01-04T08:35:08.966Z,91
2023-01-04T08:36:19.583Z,90
2023-01-04T08:37:23.826Z,91
2023-01-04T08:38:58.526Z,93
2023-01-04T08:39:37.960Z,105
2023-01-04T08:40:58.361Z,91
2023-01-04T08:41:58.682Z,87
2023-01-04T08:43:01.416Z,96
2023-01-04T08:44:08.287Z,91
2023-01-04T08:45:15.258Z,91
2023-01-04T08:46:22.489Z,95
2023-01-04T08:47:29.552Z,93
2023-01-04T08:48:36.767Z,92
2023-01-04T08:49:43.995Z,89
2023-01-04T08:50:51.154Z,90
2023-01-04T08:51:58.154Z,89
2023-01-04T08:53:05.189Z,93
2023-01-04T08:54:12.888Z,91
2023-01-04T08:55:23.403Z,94
2023-01-04T08:56:27.162Z,91
2023-01-04T08:57:34.355Z,90
2023-01-04T08:58:42.434Z,99
2023-01-04T08:59:49.724Z,97
2023-01-04T09:00:57.044Z,96
2023-01-04T09:02:09.709Z,97
2023-01-04T09:03:26.735Z,96
2023-01-04T09:04:33.906Z,97
2023-01-04T09:05:41.988Z,100
2023-01-04T09:06:49.931Z,100
2023-01-04T09:07:57.160Z,99
2023-01-04T09:09:04.048Z,103
2023-01-04T09:10:11.299Z,102
2023-01-04T09:11:19.258Z,104
2023-01-04T09:12:26.414Z,100
2023-01-04T09:13:33.742Z,106
2023-01-04T09:14:40.995Z,97
2023-01-04T09:15:49.224Z,99
2023-01-04T09:16:56.497Z,97
2023-01-04T09:18:30.338Z,104
2023-01-04T09:19:13.992Z,105
2023-01-04T09:20:20.414Z,100
2023-01-04T09:21:27.673Z,105
2023-01-04T09:22:34.763Z,91
2023-01-04T09:23:41.883Z,104
2023-01-04T09:24:49.292Z,97
2023-01-04T09:25:56.623Z,101
2023-01-04T09:27:05.010Z,104
2023-01-04T09:28:12.182Z,105
2023-01-04T09:29:19.158Z,107
2023-01-04T09:30:27.365Z,105
2023-01-04T09:31:35.453Z,107
2023-01-04T09:32:42.786Z,104
2023-01-04T09:34:56.982Z,103
2023-01-04T09:36:04.133Z,112
2023-01-04T09:37:11.498Z,111
2023-01-04T09:38:18.697Z,109
2023-01-04T09:39:25.791Z,114
2023-01-04T09:40:32.936Z,112
2023-01-04T09:41:48.239Z,109
2023-01-04T09:43:19.765Z,111
2023-01-04T09:44:08.061Z,114
2023-01-04T09:45:24.413Z,105
2023-01-04T09:46:30.377Z,102
2023-01-04T09:47:48.677Z,110
2023-01-04T09:49:01.015Z,121
2023-01-04T09:50:16.302Z,98
2023-01-04T09:51:26.235Z,103
2023-01-04T09:52:33.093Z,109
2023-01-04T09:53:50.365Z,104
2023-01-04T09:54:59.039Z,101
2023-01-04T09:56:04.869Z,99
2023-01-04T09:57:19.988Z,113
2023-01-04T09:58:32.174Z,99
2023-01-04T09:59:41.901Z,100
2023-01-04T10:00:49.132Z,93
2023-01-04T10:02:04.501Z,88
2023-01-04T10:03:17.325Z,94
2023-01-04T10:04:30.529Z,88
2023-01-04T10:05:45.485Z,84
2023-01-04T10:06:52.564Z,83
2023-01-04T10:08:00.878Z,77
2023-01-04T10:09:08.913Z,72
2023-01-04T10:10:17.561Z,65
2023-01-04T10:31:38.329Z,27
2023-01-04T10:32:19.493Z,27
2023-01-04T10:33:28.190Z,36
2023-01-04T10:34:41.250Z,26
2023-01-04T10:35:48.497Z,33
2023-01-04T10:36:55.677Z,27
2023-01-04T10:38:03.785Z,27
2023-01-04T10:39:24.578Z,36
2023-01-04T10:40:28.885Z,26
2023-01-04T10:41:36.817Z,25
2023-01-04T10:42:46.900Z,39
2023-01-04T10:44:10.217Z,32
2023-01-04T10:45:09.754Z,33
2023-01-04T10:46:21.809Z,34
2023-01-04T10:47:28.824Z,25
2023-01-04T10:48:35.949Z,32
2023-01-04T10:49:43.172Z,25
2023-01-04T10:51:00.985Z,31
2023-01-04T10:52:06.326Z,32
2023-01-04T10:53:16.092Z,36
2023-01-04T10:54:23.352Z,40
2023-01-04T10:55:35.524Z,32
2023-01-04T10:56:45.663Z,39
2023-01-04T10:58:00.576Z,29
2023-01-04T10:59:17.700Z,37
2023-01-04T11:00:32.730Z,31
2023-01-04T11:01:46.103Z,34
2023-01-04T11:02:55.605Z,25
2023-01-04T11:04:03.649Z,43
2023-01-04T11:05:20.954Z,25
2023-01-04T11:06:34.237Z,29
2023-01-04T11:07:52.534Z,27
2023-01-04T11:09:00.325Z,32
2023-01-04T11:10:07.315Z,30
2023-01-04T11:11:16.890Z,25
2023-01-04T11:12:26.573Z,31
2023-01-04T11:13:33.823Z,27
2023-01-04T11:14:40.963Z,29
2023-01-04T11:15:48.110Z,39
2023-01-04T11:16:55.158Z,30
2023-01-04T11:18:02.397Z,30
2023-01-04T11:19:09.623Z,28
2023-01-04T11:20:17.689Z,32
2023-01-04T11:21:24.849Z,35
2023-01-04T11:22:34.389Z,36
2023-01-04T11:23:41.668Z,27
2023-01-04T11:25:08.083Z,25
2023-01-04T11:25:56.639Z,25
2023-01-04T11:27:03.118Z,31
2023-01-04T11:28:11.147Z,25
2023-01-04T11:29:24.076Z,31
2023-01-04T11:30:33.976Z,31
2023-01-04T11:31:47.987Z,30
2023-01-04T11:32:55.698Z,32
2023-01-04T11:34:08.118Z,32
2023-01-04T11:35:15.190Z,37
2023-01-04T11:36:32.862Z,35
2023-01-04T11:37:44.677Z,34
2023-01-04T11:39:11.726Z,34
2023-01-04T11:40:22.979Z,43
2023-01-04T11:41:30.096Z,30
2023-01-04T11:42:37.142Z,40
2023-01-04T11:43:44.357Z,34
2023-01-04T11:44:51.462Z,35
2023-01-04T11:46:02.612Z,30
2023-01-04T11:47:20.026Z,29
2023-01-04T11:48:30.181Z,37
2023-01-04T11:49:37.587Z,34
2023-01-04T11:50:44.525Z,34
2023-01-04T11:51:51.653Z,36
2023-01-04T11:52:58.941Z,39
2023-01-04T11:54:05.806Z,26
2023-01-04T11:55:18.450Z,32
2023-01-04T11:56:30.852Z,27
2023-01-04T11:57:41.186Z,29
2023-01-04T11:58:48.746Z,32
2023-01-04T12:00:06.407Z,31
2023-01-04T12:01:13.976Z,29
2023-01-04T12:03:33.959Z,25
2023-01-04T12:04:44.474Z,26
2023-01-04T12:05:51.265Z,28
2023-01-04T12:07:00.397Z,29
2023-01-04T12:08:07.573Z,25
2023-01-04T12:09:23.702Z,25
2023-01-04T12:10:31.277Z,29
2023-01-04T12:11:38.164Z,25
2023-01-04T12:12:50.371Z,31
2023-01-04T12:13:58.834Z,26
2023-01-04T12:15:05.653Z,37
2023-01-04T12:16:13.148Z,30
2023-01-04T12:17:25.077Z,25
2023-01-04T12:18:32.435Z,36
2023-01-04T12:19:40.748Z,29
2023-01-04T12:20:48.025Z,30
2023-01-04T12:21:55.435Z,29
2023-01-04T12:23:02.729Z,33
2023-01-04T12:24:10.257Z,35
2023-01-04T12:25:18.751Z,35
2023-01-04T12:26:28.857Z,31
2023-01-04T12:27:35.985Z,33
2023-01-04T12:28:42.962Z,37
2023-01-04T12:29:50.109Z,40
2023-01-04T12:32:20.612Z,33
2023-01-04T12:33:31.176Z,40
2023-01-04T12:34:39.361Z,35
2023-01-04T12:35:50.010Z,37
2023-01-04T12:37:07.594Z,45
2023-01-04T12:38:14.600Z,33
2023-01-04T12:39:22.672Z,35
2023-01-04T12:40:39.998Z,44
2023-01-04T12:41:51.286Z,40
2023-01-04T12:43:03.335Z,36
2023-01-04T12:44:18.133Z,39
2023-01-04T12:45:39.909Z,36
2023-01-04T12:46:52.520Z,37
2023-01-04T12:48:04.764Z,44
2023-01-04T12:49:27.500Z,41
2023-01-04T12:50:38.272Z,40
2023-01-04T12:51:51.787Z,35
2023-01-04T12:53:59.448Z,40
2023-01-04T12:55:06.456Z,43
2023-01-04T12:56:23.797Z,41
2023-01-04T12:57:42.025Z,36
2023-01-04T12:59:23.962Z,37
2023-01-04T13:00:06.740Z,41
2023-01-04T13:01:14.793Z,35
2023-01-04T13:02:25.138Z,34
2023-01-04T13:03:37.128Z,35
2023-01-04T13:04:47.357Z,29
2023-01-04T13:05:56.348Z,32
2023-01-04T13:07:05.585Z,32
2023-01-04T13:08:12.748Z,28
2023-01-04T13:09:24.426Z,32
2023-01-04T13:10:28.273Z,25
2023-01-04T13:11:35.215Z,29
2023-01-04T13:12:51.820Z,27
2023-01-04T13:14:09.488Z,33
2023-01-04T13:15:21.593Z,31
2023-01-04T13:16:28.748Z,25
2023-01-04T13:17:45.935Z,32
2023-01-04T13:18:53.269Z,37
2023-01-04T13:20:01.189Z,35
2023-01-04T13:21:21.258Z,36
2023-01-04T13:22:34.269Z,32
2023-01-04T13:23:41.445Z,29
2023-01-04T13:24:53.738Z,38
2023-01-04T13:26:00.789Z,36
2023-01-04T13:27:19.350Z,40
2023-01-04T13:28:27.226Z,27
2023-01-04T13:29:35.064Z,37
2023-01-04T13:30:42.148Z,40
2023-01-04T13:31:50.173Z,37
2023-01-04T13:33:25.368Z,39
2023-01-04T13:34:15.258Z,41
2023-01-04T13:35:24.974Z,34
2023-01-04T13:36:32.017Z,36
2023-01-04T13:37:39.319Z,32
2023-01-04T13:38:46.367Z,44
2023-01-04T13:39:54.283Z,40
2023-01-04T13:41:11.810Z,47
2023-01-04T13:42:24.544Z,34
2023-01-04T13:43:36.184Z,46
2023-01-04T13:45:18.338Z,41
2023-01-04T13:46:07.019Z,44
2023-01-04T13:47:19.641Z,45
2023-01-04T13:48:27.724Z,48
2023-01-04T13:49:34.857Z,49
2023-01-04T13:50:42.015Z,52
2023-01-04T13:51:49.134Z,52
2023-01-04T13:53:05.971Z,51
2023-01-04T13:54:03.863Z,49
2023-01-04T13:55:11.056Z,53
2023-01-04T13:56:28.539Z,45
2023-01-04T13:57:38.540Z,49
2023-01-04T13:58:45.703Z,47
2023-01-04T13:59:53.792Z,53
2023-01-04T14:01:01.120Z,55
2023-01-04T14:02:11.529Z,55
2023-01-04T14:03:18.486Z,57
2023-01-04T14:04:31.098Z,54
2023-01-04T14:05:38.183Z,50
2023-01-04T14:06:48.260Z,58
2023-01-04T14:07:55.468Z,56
2023-01-04T14:09:02.869Z,51
2023-01-04T14:10:10.212Z,55
2023-01-04T14:11:20.392Z,58
2023-01-04T14:12:35.077Z,54
2023-01-04T14:13:42.253Z,58
2023-01-04T14:14:49.851Z,60
2023-01-04T14:16:00.292Z,62
2023-01-04T14:17:14.412Z,64
2023-01-04T14:18:26.448Z,59
2023-01-04T14:19:34.635Z,64
2023-01-04T14:20:47.137Z,62
2023-01-04T14:21:54.065Z,65
2023-01-04T14:23:01.348Z,60
2023-01-04T14:24:08.326Z,66
2023-01-04T14:25:25.646Z,63
2023-01-04T14:26:36.661Z,60
2023-01-04T14:27:44.044Z,66
2023-01-04T14:28:51.395Z,66
2023-01-04T14:29:58.695Z,68
2023-01-04T14:31:10.969Z,65
2023-01-04T14:32:18.398Z,68
2023-01-04T14:33:25.184Z,72
2023-01-04T14:34:35.095Z,67
2023-01-04T14:35:44.139Z,65
2023-01-04T14:36:49.974Z,60
2023-01-04T14:37:57.317Z,69
2023-01-04T14:39:07.958Z,73
2023-01-04T14:40:15.231Z,70
2023-01-04T14:41:23.191Z,63
2023-01-04T14:42:41.157Z,66
2023-01-04T14:43:48.487Z,73
2023-01-04T14:44:55.369Z,65
2023-01-04T14:46:02.471Z,65
2023-01-04T14:47:11.612Z,69
2023-01-04T14:48:23.852Z,63
2023-01-04T14:49:26.188Z,64
2023-01-04T14:50:34.363Z,65
2023-01-04T14:51:41.852Z,72
2023-01-04T14:52:57.208Z,71
2023-01-04T14:54:05.868Z,76
2023-01-04T14:55:13.605Z,81
2023-01-04T14:56:21.012Z,90
2023-01-04T14:57:28.879Z,98
2023-01-04T14:58:36.111Z,102
2023-01-04T14:59:43.331Z,110
2023-01-04T15:00:51.353Z,110
2023-01-04T15:01:58.985Z,123
2023-01-04T15:03:05.969Z,119
2023-01-04T15:04:13.642Z,135
2023-01-04T15:05:21.987Z,125
2023-01-04T15:13:15.630Z,152
2023-01-04T15:14:26.242Z,153
2023-01-04T15:15:36.383Z,159
2023-01-04T15:16:47.691Z,169
2023-01-04T15:44:54.514Z,175
2023-01-04T15:46:02.606Z,171
2023-01-04T15:47:11.205Z,171
2023-01-04T15:48:18.549Z,174
2023-01-04T15:49:25.625Z,176
2023-01-04T15:50:32.672Z,164
2023-01-04T15:51:40.773Z,175
2023-01-04T15:52:48.297Z,168
2023-01-04T15:53:55.274Z,165
2023-01-04T15:55:03.821Z,164
2023-01-04T15:56:11.127Z,160
2023-01-04T15:57:18.323Z,167
2023-01-04T15:58:25.365Z,162
2023-01-04T15:59:32.399Z,159
2023-01-04T16:00:39.739Z,161
2023-01-04T16:01:47.188Z,150
2023-01-04T16:02:54.366Z,155
2023-01-04T16:04:02.655Z,150
2023-01-04T16:05:09.856Z,148
2023-01-04T16:06:16.822Z,153
2023-01-04T16:07:23.908Z,151
2023-01-04T16:08:30.661Z,148
2023-01-04T16:09:37.715Z,146
2023-01-04T16:10:44.758Z,153
2023-01-04T16:11:51.864Z,151
2023-01-04T16:13:04.719Z,148
2023-01-04T16:14:11.877Z,147
2023-01-04T16:15:19.101Z,140
2023-01-04T16:16:26.975Z,147
2023-01-04T16:17:34.769Z,136
2023-01-04T16:18:42.091Z,137
2023-01-04T16:19:54.542Z,134
2023-01-04T16:21:01.365Z,129
2023-01-04T16:22:08.489Z,140
2023-01-04T16:23:16.165Z,137
2023-01-04T16:24:59.907Z,138
2023-01-04T16:25:31.265Z,138
2023-01-04T16:26:39.349Z,139
2023-01-04T16:27:46.398Z,139
2023-01-04T16:28:54.377Z,138
2023-01-04T16:30:01.601Z,140
2023-01-04T16:31:09.301Z,128
2023-01-04T16:32:16.231Z,130
2023-01-04T16:33:23.565Z,128
2023-01-04T16:34:30.701Z,118
2023-01-04T16:35:37.778Z,120
2023-01-04T16:36:44.769Z,123
2023-01-04T16:37:54.927Z,112
2023-01-04T16:39:02.106Z,112
2023-01-04T16:40:09.917Z,125
2023-01-04T16:41:16.521Z,107
2023-01-04T16:42:23.536Z,105
2023-01-04T16:43:31.542Z,108
2023-01-04T16:44:38.772Z,107
2023-01-04T16:45:45.963Z,113
2023-01-04T16:46:53.321Z,107
2023-01-04T16:48:00.985Z,113
2023-01-04T16:49:08.802Z,112
2023-01-04T16:50:16.172Z,115
2023-01-04T16:51:23.213Z,111
2023-01-04T16:52:31.724Z,112
2023-01-04T16:53:38.361Z,110
2023-01-04T16:54:45.713Z,112
2023-01-04T16:55:52.666Z,107
2023-01-04T16:57:00.637Z,107
2023-01-04T16:58:08.929Z,122
2023-01-04T16:59:15.680Z,114
2023-01-04T17:00:22.639Z,110
2023-01-04T17:01:29.675Z,115
2023-01-04T17:02:36.532Z,112
2023-01-04T17:03:43.726Z,107
2023-01-04T17:04:50.999Z,108
2023-01-04T17:06:01.066Z,110
2023-01-04T17:07:11.421Z,102
2023-01-04T17:08:22.090Z,100